sensor_id;sensor_type;location;lat;lon;timestamp;P1;durP1;ratioP1;P2;durP2;ratioP2
20734;SDS011;10528;52.124;5.196;2023-03-31T00:00:50;13.20;;;3.38;;
20734;SDS011;10528;52.124;5.196;2023-03-31T00:03:19;14.57;;;3.30;;
20734;SDS011;10528;52.124;5.196;2023-03-31T00:05:56;12.27;;;2.83;;
20734;SDS011;10528;52.124;5.196;2023-03-31T00:08:25;12.43;;;2.92;;
20734;SDS011;10528;52.124;5.196;2023-03-31T00:11:01;13.77;;;3.10;;
20734;SDS011;10528;52.124;5.196;2023-03-31T00:13:32;13.00;;;3.25;;
20734;SDS011;10528;52.124;5.196;2023-03-31T00:16:00;9.90;;;2.88;;
20734;SDS011;10528;52.124;5.196;2023-03-31T00:18:31;9.38;;;3.08;;
20734;SDS011;10528;52.124;5.196;2023-03-31T00:23:52;9.90;;;3.15;;
20734;SDS011;10528;52.124;5.196;2023-03-31T00:26:21;10.43;;;2.60;;
20734;SDS011;10528;52.124;5.196;2023-03-31T00:28:49;12.25;;;2.90;;
20734;SDS011;10528;52.124;5.196;2023-03-31T00:31:16;9.75;;;2.60;;
20734;SDS011;10528;52.124;5.196;2023-03-31T00:33:45;10.52;;;2.65;;
20734;SDS011;10528;52.124;5.196;2023-03-31T00:36:12;9.88;;;2.95;;
20734;SDS011;10528;52.124;5.196;2023-03-31T00:38:47;12.60;;;3.28;;
20734;SDS011;10528;52.124;5.196;2023-03-31T00:41:14;13.23;;;3.17;;
20734;SDS011;10528;52.124;5.196;2023-03-31T00:46:43;12.77;;;3.10;;
20734;SDS011;10528;52.124;5.196;2023-03-31T00:49:24;10.30;;;2.70;;
20734;SDS011;10528;52.124;5.196;2023-03-31T00:55:04;8.80;;;2.35;;
20734;SDS011;10528;52.124;5.196;2023-03-31T00:57:37;8.25;;;1.88;;
20734;SDS011;10528;52.124;5.196;2023-03-31T01:00:07;7.80;;;2.15;;
20734;SDS011;10528;52.124;5.196;2023-03-31T01:02:48;10.20;;;2.42;;
20734;SDS011;10528;52.124;5.196;2023-03-31T01:05:28;9.90;;;2.00;;
20734;SDS011;10528;52.124;5.196;2023-03-31T01:08:26;10.82;;;2.70;;
20734;SDS011;10528;52.124;5.196;2023-03-31T01:10:55;9.13;;;2.13;;
20734;SDS011;10528;52.124;5.196;2023-03-31T01:13:29;9.75;;;2.20;;
20734;SDS011;10528;52.124;5.196;2023-03-31T01:15:58;9.13;;;2.08;;
20734;SDS011;10528;52.124;5.196;2023-03-31T01:18:25;8.00;;;1.83;;
20734;SDS011;10528;52.124;5.196;2023-03-31T01:42:16;6.72;;;1.85;;
20734;SDS011;10528;52.124;5.196;2023-03-31T01:45:02;8.55;;;2.30;;
20734;SDS011;10528;52.124;5.196;2023-03-31T01:50:56;9.30;;;2.10;;
20734;SDS011;10528;52.124;5.196;2023-03-31T01:53:31;9.77;;;2.85;;
20734;SDS011;10528;52.124;5.196;2023-03-31T01:56:12;11.48;;;2.70;;
20734;SDS011;10528;52.124;5.196;2023-03-31T01:58:55;8.88;;;2.53;;
20734;SDS011;10528;52.124;5.196;2023-03-31T02:01:42;10.45;;;2.85;;
20734;SDS011;10528;52.124;5.196;2023-03-31T02:04:29;8.77;;;3.25;;
20734;SDS011;10528;52.124;5.196;2023-03-31T02:07:03;9.93;;;3.58;;
20734;SDS011;10528;52.124;5.196;2023-03-31T02:09:41;9.38;;;3.13;;
20734;SDS011;10528;52.124;5.196;2023-03-31T02:12:13;9.82;;;3.15;;
20734;SDS011;10528;52.124;5.196;2023-03-31T02:14:45;8.95;;;3.35;;
20734;SDS011;10528;52.124;5.196;2023-03-31T02:17:18;12.20;;;3.55;;
20734;SDS011;10528;52.124;5.196;2023-03-31T02:19:56;10.95;;;3.45;;
20734;SDS011;10528;52.124;5.196;2023-03-31T02:22:31;9.93;;;3.20;;
20734;SDS011;10528;52.124;5.196;2023-03-31T02:25:03;10.75;;;3.40;;
20734;SDS011;10528;52.124;5.196;2023-03-31T02:27:39;15.48;;;3.58;;
20734;SDS011;10528;52.124;5.196;2023-03-31T02:30:12;11.15;;;3.17;;
20734;SDS011;10528;52.124;5.196;2023-03-31T02:32:41;10.70;;;3.60;;
20734;SDS011;10528;52.124;5.196;2023-03-31T02:35:17;9.45;;;3.05;;
20734;SDS011;10528;52.124;5.196;2023-03-31T02:37:46;9.25;;;3.25;;
20734;SDS011;10528;52.124;5.196;2023-03-31T02:40:19;10.13;;;3.28;;
20734;SDS011;10528;52.124;5.196;2023-03-31T02:42:48;11.65;;;3.90;;
20734;SDS011;10528;52.124;5.196;2023-03-31T02:45:49;9.80;;;3.53;;
20734;SDS011;10528;52.124;5.196;2023-03-31T02:48:22;10.43;;;3.63;;
20734;SDS011;10528;52.124;5.196;2023-03-31T02:54:10;12.13;;;3.35;;
20734;SDS011;10528;52.124;5.196;2023-03-31T03:02:55;10.27;;;2.88;;
20734;SDS011;10528;52.124;5.196;2023-03-31T03:09:22;10.18;;;2.88;;
20734;SDS011;10528;52.124;5.196;2023-03-31T03:12:02;12.45;;;3.03;;
20734;SDS011;10528;52.124;5.196;2023-03-31T03:14:46;9.98;;;2.92;;
20734;SDS011;10528;52.124;5.196;2023-03-31T03:17:34;12.15;;;2.90;;
20734;SDS011;10528;52.124;5.196;2023-03-31T03:20:09;11.07;;;2.90;;
20734;SDS011;10528;52.124;5.196;2023-03-31T03:22:38;7.38;;;2.60;;
20734;SDS011;10528;52.124;5.196;2023-03-31T03:25:06;10.05;;;3.10;;
20734;SDS011;10528;52.124;5.196;2023-03-31T03:27:37;12.20;;;3.72;;
20734;SDS011;10528;52.124;5.196;2023-03-31T03:30:06;9.02;;;2.45;;
20734;SDS011;10528;52.124;5.196;2023-03-31T03:32:36;6.28;;;2.33;;
20734;SDS011;10528;52.124;5.196;2023-03-31T03:35:04;11.77;;;2.97;;
20734;SDS011;10528;52.124;5.196;2023-03-31T03:37:32;8.93;;;2.47;;
20734;SDS011;10528;52.124;5.196;2023-03-31T03:39:59;10.65;;;2.80;;
20734;SDS011;10528;52.124;5.196;2023-03-31T03:42:26;10.77;;;2.70;;
20734;SDS011;10528;52.124;5.196;2023-03-31T03:44:53;9.63;;;2.42;;
20734;SDS011;10528;52.124;5.196;2023-03-31T03:47:20;9.57;;;2.58;;
20734;SDS011;10528;52.124;5.196;2023-03-31T03:49:47;12.95;;;3.65;;
20734;SDS011;10528;52.124;5.196;2023-03-31T03:52:14;10.52;;;2.33;;
20734;SDS011;10528;52.124;5.196;2023-03-31T03:54:41;10.73;;;2.10;;
20734;SDS011;10528;52.124;5.196;2023-03-31T03:57:08;7.57;;;2.40;;
20734;SDS011;10528;52.124;5.196;2023-03-31T03:59:36;11.02;;;2.30;;
20734;SDS011;10528;52.124;5.196;2023-03-31T04:02:04;10.48;;;2.88;;
20734;SDS011;10528;52.124;5.196;2023-03-31T04:04:31;8.93;;;2.28;;
20734;SDS011;10528;52.124;5.196;2023-03-31T04:06:58;8.05;;;1.95;;
20734;SDS011;10528;52.124;5.196;2023-03-31T04:09:24;7.07;;;2.03;;
20734;SDS011;10528;52.124;5.196;2023-03-31T04:11:51;8.63;;;2.17;;
20734;SDS011;10528;52.124;5.196;2023-03-31T04:14:18;6.18;;;1.95;;
20734;SDS011;10528;52.124;5.196;2023-03-31T04:16:45;9.88;;;2.33;;
20734;SDS011;10528;52.124;5.196;2023-03-31T04:19:14;7.60;;;2.03;;
20734;SDS011;10528;52.124;5.196;2023-03-31T04:21:46;6.55;;;1.70;;
20734;SDS011;10528;52.124;5.196;2023-03-31T04:24:16;5.70;;;1.35;;
20734;SDS011;10528;52.124;5.196;2023-03-31T04:26:47;4.95;;;1.60;;
20734;SDS011;10528;52.124;5.196;2023-03-31T04:29:15;4.88;;;1.52;;
20734;SDS011;10528;52.124;5.196;2023-03-31T04:31:45;7.38;;;1.77;;
20734;SDS011;10528;52.124;5.196;2023-03-31T04:34:12;7.75;;;1.60;;
20734;SDS011;10528;52.124;5.196;2023-03-31T04:36:41;5.78;;;1.40;;
20734;SDS011;10528;52.124;5.196;2023-03-31T04:39:18;6.63;;;2.00;;
20734;SDS011;10528;52.124;5.196;2023-03-31T04:41:56;8.10;;;1.50;;
20734;SDS011;10528;52.124;5.196;2023-03-31T04:44:25;5.07;;;1.60;;
20734;SDS011;10528;52.124;5.196;2023-03-31T04:46:52;6.85;;;1.50;;
20734;SDS011;10528;52.124;5.196;2023-03-31T04:49:20;5.60;;;1.73;;
20734;SDS011;10528;52.124;5.196;2023-03-31T04:51:47;6.32;;;1.80;;
20734;SDS011;10528;52.124;5.196;2023-03-31T04:54:14;7.45;;;2.10;;
20734;SDS011;10528;52.124;5.196;2023-03-31T04:56:42;9.95;;;2.08;;
20734;SDS011;10528;52.124;5.196;2023-03-31T04:59:09;10.27;;;1.80;;
20734;SDS011;10528;52.124;5.196;2023-03-31T05:01:36;7.78;;;1.90;;
20734;SDS011;10528;52.124;5.196;2023-03-31T05:04:03;6.05;;;1.63;;
20734;SDS011;10528;52.124;5.196;2023-03-31T05:06:31;11.25;;;1.90;;
20734;SDS011;10528;52.124;5.196;2023-03-31T05:08:58;6.75;;;2.00;;
20734;SDS011;10528;52.124;5.196;2023-03-31T05:11:26;5.75;;;1.98;;
20734;SDS011;10528;52.124;5.196;2023-03-31T05:13:54;5.22;;;1.60;;
20734;SDS011;10528;52.124;5.196;2023-03-31T05:16:21;8.50;;;1.77;;
20734;SDS011;10528;52.124;5.196;2023-03-31T05:18:48;8.50;;;1.95;;
20734;SDS011;10528;52.124;5.196;2023-03-31T05:21:17;10.68;;;2.30;;
20734;SDS011;10528;52.124;5.196;2023-03-31T05:23:46;8.60;;;2.47;;
20734;SDS011;10528;52.124;5.196;2023-03-31T05:26:14;5.30;;;1.75;;
20734;SDS011;10528;52.124;5.196;2023-03-31T05:28:41;8.20;;;2.10;;
20734;SDS011;10528;52.124;5.196;2023-03-31T05:31:09;9.20;;;2.42;;
20734;SDS011;10528;52.124;5.196;2023-03-31T05:33:38;9.35;;;2.33;;
20734;SDS011;10528;52.124;5.196;2023-03-31T05:36:08;6.05;;;1.40;;
20734;SDS011;10528;52.124;5.196;2023-03-31T05:38:40;6.75;;;1.95;;
20734;SDS011;10528;52.124;5.196;2023-03-31T05:41:09;4.55;;;1.60;;
20734;SDS011;10528;52.124;5.196;2023-03-31T05:43:37;8.05;;;1.90;;
20734;SDS011;10528;52.124;5.196;2023-03-31T05:46:04;6.28;;;1.30;;
20734;SDS011;10528;52.124;5.196;2023-03-31T05:48:32;6.38;;;1.58;;
20734;SDS011;10528;52.124;5.196;2023-03-31T05:51:00;7.35;;;2.20;;
20734;SDS011;10528;52.124;5.196;2023-03-31T05:53:27;7.55;;;1.80;;
20734;SDS011;10528;52.124;5.196;2023-03-31T05:55:59;5.63;;;1.80;;
20734;SDS011;10528;52.124;5.196;2023-03-31T05:58:28;6.82;;;2.10;;
20734;SDS011;10528;52.124;5.196;2023-03-31T06:01:06;8.25;;;1.88;;
20734;SDS011;10528;52.124;5.196;2023-03-31T06:03:37;6.68;;;1.60;;
20734;SDS011;10528;52.124;5.196;2023-03-31T06:06:07;4.68;;;1.40;;
20734;SDS011;10528;52.124;5.196;2023-03-31T06:08:35;9.38;;;1.98;;
20734;SDS011;10528;52.124;5.196;2023-03-31T06:11:04;7.55;;;1.45;;
20734;SDS011;10528;52.124;5.196;2023-03-31T06:13:33;5.00;;;1.50;;
20734;SDS011;10528;52.124;5.196;2023-03-31T06:16:01;5.20;;;1.50;;
20734;SDS011;10528;52.124;5.196;2023-03-31T06:18:30;4.97;;;1.58;;
20734;SDS011;10528;52.124;5.196;2023-03-31T06:21:00;6.03;;;1.48;;
20734;SDS011;10528;52.124;5.196;2023-03-31T06:23:27;8.13;;;2.03;;
20734;SDS011;10528;52.124;5.196;2023-03-31T06:25:57;7.93;;;1.48;;
20734;SDS011;10528;52.124;5.196;2023-03-31T06:28:28;7.18;;;1.55;;
20734;SDS011;10528;52.124;5.196;2023-03-31T06:31:02;7.53;;;1.85;;
20734;SDS011;10528;52.124;5.196;2023-03-31T06:33:33;5.07;;;1.25;;
20734;SDS011;10528;52.124;5.196;2023-03-31T06:36:00;5.40;;;1.38;;
20734;SDS011;10528;52.124;5.196;2023-03-31T06:38:31;3.17;;;1.30;;
20734;SDS011;10528;52.124;5.196;2023-03-31T06:40:59;5.43;;;1.17;;
20734;SDS011;10528;52.124;5.196;2023-03-31T06:43:27;7.22;;;1.75;;
20734;SDS011;10528;52.124;5.196;2023-03-31T06:45:54;6.45;;;1.23;;
20734;SDS011;10528;52.124;5.196;2023-03-31T06:48:22;4.63;;;1.10;;
20734;SDS011;10528;52.124;5.196;2023-03-31T06:50:52;8.45;;;1.23;;
20734;SDS011;10528;52.124;5.196;2023-03-31T06:53:20;4.60;;;1.27;;
20734;SDS011;10528;52.124;5.196;2023-03-31T06:55:47;5.43;;;1.17;;
20734;SDS011;10528;52.124;5.196;2023-03-31T06:58:14;5.50;;;1.30;;
20734;SDS011;10528;52.124;5.196;2023-03-31T07:00:41;5.78;;;1.13;;
20734;SDS011;10528;52.124;5.196;2023-03-31T07:03:10;4.80;;;0.95;;
20734;SDS011;10528;52.124;5.196;2023-03-31T07:05:38;5.18;;;1.30;;
20734;SDS011;10528;52.124;5.196;2023-03-31T07:08:06;4.55;;;1.20;;
20734;SDS011;10528;52.124;5.196;2023-03-31T07:10:33;2.92;;;0.90;;
20734;SDS011;10528;52.124;5.196;2023-03-31T07:12:59;4.38;;;0.90;;
20734;SDS011;10528;52.124;5.196;2023-03-31T07:15:30;6.82;;;1.25;;
20734;SDS011;10528;52.124;5.196;2023-03-31T07:17:57;4.05;;;1.20;;
20734;SDS011;10528;52.124;5.196;2023-03-31T07:20:27;4.05;;;1.10;;
20734;SDS011;10528;52.124;5.196;2023-03-31T07:22:56;3.03;;;1.02;;
20734;SDS011;10528;52.124;5.196;2023-03-31T07:25:23;6.13;;;1.10;;
20734;SDS011;10528;52.124;5.196;2023-03-31T07:27:50;4.75;;;1.33;;
20734;SDS011;10528;52.124;5.196;2023-03-31T07:30:17;7.38;;;1.38;;
20734;SDS011;10528;52.124;5.196;2023-03-31T07:32:46;3.85;;;1.05;;
20734;SDS011;10528;52.124;5.196;2023-03-31T07:35:15;3.13;;;1.33;;
20734;SDS011;10528;52.124;5.196;2023-03-31T07:37:44;3.80;;;1.20;;
20734;SDS011;10528;52.124;5.196;2023-03-31T07:40:15;5.28;;;1.00;;
20734;SDS011;10528;52.124;5.196;2023-03-31T07:42:51;5.80;;;1.30;;
20734;SDS011;10528;52.124;5.196;2023-03-31T07:45:20;4.50;;;1.45;;
20734;SDS011;10528;52.124;5.196;2023-03-31T07:47:50;3.50;;;1.00;;
20734;SDS011;10528;52.124;5.196;2023-03-31T07:50:18;5.25;;;1.58;;
20734;SDS011;10528;52.124;5.196;2023-03-31T07:52:49;4.60;;;1.27;;
20734;SDS011;10528;52.124;5.196;2023-03-31T07:55:16;3.60;;;1.20;;
20734;SDS011;10528;52.124;5.196;2023-03-31T07:57:45;3.10;;;0.90;;
20734;SDS011;10528;52.124;5.196;2023-03-31T08:00:13;3.65;;;1.00;;
20734;SDS011;10528;52.124;5.196;2023-03-31T08:02:41;4.43;;;1.20;;
20734;SDS011;10528;52.124;5.196;2023-03-31T08:05:10;4.53;;;1.08;;
20734;SDS011;10528;52.124;5.196;2023-03-31T08:07:40;3.47;;;1.02;;
20734;SDS011;10528;52.124;5.196;2023-03-31T08:10:12;4.55;;;1.25;;
20734;SDS011;10528;52.124;5.196;2023-03-31T08:12:44;5.00;;;1.55;;
20734;SDS011;10528;52.124;5.196;2023-03-31T08:15:11;6.90;;;1.63;;
20734;SDS011;10528;52.124;5.196;2023-03-31T08:17:38;4.97;;;1.63;;
20734;SDS011;10528;52.124;5.196;2023-03-31T08:20:06;7.70;;;1.50;;
20734;SDS011;10528;52.124;5.196;2023-03-31T08:22:35;4.82;;;1.60;;
20734;SDS011;10528;52.124;5.196;2023-03-31T08:25:04;5.10;;;1.40;;
20734;SDS011;10528;52.124;5.196;2023-03-31T08:27:37;9.45;;;2.10;;
20734;SDS011;10528;52.124;5.196;2023-03-31T08:30:06;4.82;;;1.75;;
20734;SDS011;10528;52.124;5.196;2023-03-31T08:32:36;5.28;;;1.95;;
20734;SDS011;10528;52.124;5.196;2023-03-31T08:35:04;6.13;;;2.10;;
20734;SDS011;10528;52.124;5.196;2023-03-31T08:37:31;7.75;;;2.00;;
20734;SDS011;10528;52.124;5.196;2023-03-31T08:39:58;6.15;;;2.38;;
20734;SDS011;10528;52.124;5.196;2023-03-31T08:45:17;8.57;;;2.70;;
20734;SDS011;10528;52.124;5.196;2023-03-31T08:47:45;9.20;;;2.70;;
20734;SDS011;10528;52.124;5.196;2023-03-31T08:50:24;6.80;;;2.70;;
20734;SDS011;10528;52.124;5.196;2023-03-31T08:55:53;9.73;;;2.60;;
20734;SDS011;10528;52.124;5.196;2023-03-31T09:12:55;13.05;;;3.22;;
20734;SDS011;10528;52.124;5.196;2023-03-31T09:21:11;12.52;;;3.10;;
20734;SDS011;10528;52.124;5.196;2023-03-31T09:29:13;13.20;;;3.42;;
20734;SDS011;10528;52.124;5.196;2023-03-31T09:31:44;13.15;;;3.30;;
20734;SDS011;10528;52.124;5.196;2023-03-31T09:34:13;10.77;;;2.92;;
20734;SDS011;10528;52.124;5.196;2023-03-31T09:36:49;13.15;;;3.08;;
20734;SDS011;10528;52.124;5.196;2023-03-31T09:39:17;12.77;;;2.65;;
20734;SDS011;10528;52.124;5.196;2023-03-31T09:41:45;15.18;;;3.13;;
20734;SDS011;10528;52.124;5.196;2023-03-31T09:44:26;14.43;;;3.03;;
20734;SDS011;10528;52.124;5.196;2023-03-31T09:47:05;13.98;;;3.05;;
20734;SDS011;10528;52.124;5.196;2023-03-31T09:49:40;15.98;;;3.38;;
20734;SDS011;10528;52.124;5.196;2023-03-31T09:55:24;13.55;;;2.92;;
20734;SDS011;10528;52.124;5.196;2023-03-31T09:58:11;16.88;;;3.90;;
20734;SDS011;10528;52.124;5.196;2023-03-31T10:00:41;16.77;;;3.03;;
20734;SDS011;10528;52.124;5.196;2023-03-31T10:03:23;14.85;;;3.15;;
20734;SDS011;10528;52.124;5.196;2023-03-31T10:05:53;12.27;;;2.90;;
20734;SDS011;10528;52.124;5.196;2023-03-31T10:11:24;11.75;;;3.10;;
20734;SDS011;10528;52.124;5.196;2023-03-31T10:14:01;13.27;;;2.88;;
20734;SDS011;10528;52.124;5.196;2023-03-31T10:16:44;16.17;;;3.10;;
20734;SDS011;10528;52.124;5.196;2023-03-31T10:19:26;10.38;;;2.80;;
20734;SDS011;10528;52.124;5.196;2023-03-31T10:21:58;11.02;;;2.80;;
20734;SDS011;10528;52.124;5.196;2023-03-31T10:24:43;14.10;;;3.15;;
20734;SDS011;10528;52.124;5.196;2023-03-31T10:27:21;12.68;;;3.05;;
20734;SDS011;10528;52.124;5.196;2023-03-31T10:29:52;12.75;;;3.30;;
20734;SDS011;10528;52.124;5.196;2023-03-31T10:34:59;12.20;;;3.00;;
20734;SDS011;10528;52.124;5.196;2023-03-31T10:37:47;15.02;;;2.90;;
20734;SDS011;10528;52.124;5.196;2023-03-31T10:40:20;9.00;;;2.05;;
20734;SDS011;10528;52.124;5.196;2023-03-31T10:43:25;11.10;;;2.75;;
20734;SDS011;10528;52.124;5.196;2023-03-31T10:45:54;9.50;;;2.25;;
20734;SDS011;10528;52.124;5.196;2023-03-31T10:48:26;9.00;;;1.92;;
20734;SDS011;10528;52.124;5.196;2023-03-31T10:51:03;12.07;;;2.25;;
20734;SDS011;10528;52.124;5.196;2023-03-31T10:53:39;9.80;;;2.40;;
20734;SDS011;10528;52.124;5.196;2023-03-31T10:56:26;9.10;;;1.90;;
20734;SDS011;10528;52.124;5.196;2023-03-31T11:02:01;8.38;;;2.97;;
20734;SDS011;10528;52.124;5.196;2023-03-31T11:05:02;9.55;;;2.40;;
20734;SDS011;10528;52.124;5.196;2023-03-31T11:07:53;12.27;;;2.67;;
20734;SDS011;10528;52.124;5.196;2023-03-31T11:27:49;12.20;;;2.33;;
20734;SDS011;10528;52.124;5.196;2023-03-31T11:37:11;10.68;;;2.13;;
20734;SDS011;10528;52.124;5.196;2023-03-31T11:40:25;10.30;;;2.40;;
20734;SDS011;10528;52.124;5.196;2023-03-31T11:43:10;13.30;;;2.40;;
20734;SDS011;10528;52.124;5.196;2023-03-31T11:48:37;10.95;;;2.42;;
20734;SDS011;10528;52.124;5.196;2023-03-31T11:51:37;10.65;;;2.40;;
20734;SDS011;10528;52.124;5.196;2023-03-31T11:57:08;10.52;;;2.17;;
20734;SDS011;10528;52.124;5.196;2023-03-31T11:59:48;12.02;;;2.47;;
20734;SDS011;10528;52.124;5.196;2023-03-31T12:05:36;8.90;;;1.98;;
20734;SDS011;10528;52.124;5.196;2023-03-31T12:08:28;12.60;;;2.25;;
20734;SDS011;10528;52.124;5.196;2023-03-31T12:10:59;6.57;;;1.40;;
20734;SDS011;10528;52.124;5.196;2023-03-31T12:16:39;9.00;;;1.55;;
20734;SDS011;10528;52.124;5.196;2023-03-31T12:19:16;5.82;;;1.48;;
20734;SDS011;10528;52.124;5.196;2023-03-31T12:21:57;5.82;;;1.50;;
20734;SDS011;10528;52.124;5.196;2023-03-31T12:24:37;8.70;;;1.80;;
20734;SDS011;10528;52.124;5.196;2023-03-31T12:27:10;8.02;;;2.08;;
20734;SDS011;10528;52.124;5.196;2023-03-31T12:32:29;6.35;;;1.40;;
20734;SDS011;10528;52.124;5.196;2023-03-31T12:35:06;8.52;;;1.40;;
20734;SDS011;10528;52.124;5.196;2023-03-31T12:37:58;5.88;;;1.42;;
20734;SDS011;10528;52.124;5.196;2023-03-31T12:46:52;6.72;;;1.40;;
20734;SDS011;10528;52.124;5.196;2023-03-31T12:53:17;6.85;;;1.77;;
20734;SDS011;10528;52.124;5.196;2023-03-31T12:55:56;7.55;;;2.05;;
20734;SDS011;10528;52.124;5.196;2023-03-31T13:03:48;7.03;;;1.38;;
20734;SDS011;10528;52.124;5.196;2023-03-31T13:14:10;6.72;;;1.98;;
20734;SDS011;10528;52.124;5.196;2023-03-31T13:19:48;9.43;;;1.85;;
20734;SDS011;10528;52.124;5.196;2023-03-31T13:22:53;10.52;;;2.63;;
20734;SDS011;10528;52.124;5.196;2023-03-31T13:27:56;11.50;;;2.30;;
20734;SDS011;10528;52.124;5.196;2023-03-31T13:33:38;12.90;;;2.63;;
20734;SDS011;10528;52.124;5.196;2023-03-31T13:39:25;8.02;;;2.17;;
20734;SDS011;10528;52.124;5.196;2023-03-31T13:48:42;9.27;;;1.88;;
20734;SDS011;10528;52.124;5.196;2023-03-31T13:52:10;6.68;;;2.15;;
20734;SDS011;10528;52.124;5.196;2023-03-31T13:58:15;6.18;;;1.70;;
20734;SDS011;10528;52.124;5.196;2023-03-31T14:04:22;5.45;;;1.60;;
20734;SDS011;10528;52.124;5.196;2023-03-31T14:07:19;9.25;;;2.08;;
20734;SDS011;10528;52.124;5.196;2023-03-31T14:09:56;12.07;;;1.88;;
20734;SDS011;10528;52.124;5.196;2023-03-31T14:14:54;6.78;;;1.65;;
20734;SDS011;10528;52.124;5.196;2023-03-31T14:17:28;6.80;;;1.90;;
20734;SDS011;10528;52.124;5.196;2023-03-31T14:26:01;8.27;;;1.48;;
20734;SDS011;10528;52.124;5.196;2023-03-31T14:28:44;8.75;;;1.98;;
20734;SDS011;10528;52.124;5.196;2023-03-31T14:34:29;8.23;;;2.13;;
20734;SDS011;10528;52.124;5.196;2023-03-31T14:37:18;5.93;;;1.23;;
20734;SDS011;10528;52.124;5.196;2023-03-31T14:39:51;7.32;;;1.40;;
20734;SDS011;10528;52.124;5.196;2023-03-31T14:42:23;4.53;;;1.33;;
20734;SDS011;10528;52.124;5.196;2023-03-31T14:45:02;7.78;;;1.55;;
20734;SDS011;10528;52.124;5.196;2023-03-31T14:47:35;5.18;;;1.10;;
20734;SDS011;10528;52.124;5.196;2023-03-31T14:50:04;5.00;;;1.20;;
20734;SDS011;10528;52.124;5.196;2023-03-31T14:52:45;6.45;;;1.40;;
20734;SDS011;10528;52.124;5.196;2023-03-31T14:55:20;5.03;;;1.10;;
20734;SDS011;10528;52.124;5.196;2023-03-31T14:58:04;3.92;;;1.17;;
20734;SDS011;10528;52.124;5.196;2023-03-31T15:00:36;3.42;;;1.10;;
20734;SDS011;10528;52.124;5.196;2023-03-31T15:03:06;5.93;;;1.30;;
20734;SDS011;10528;52.124;5.196;2023-03-31T15:05:40;4.18;;;1.25;;
20734;SDS011;10528;52.124;5.196;2023-03-31T15:08:14;4.88;;;1.20;;
20734;SDS011;10528;52.124;5.196;2023-03-31T15:10:49;5.90;;;1.10;;
20734;SDS011;10528;52.124;5.196;2023-03-31T15:13:32;5.18;;;1.20;;
20734;SDS011;10528;52.124;5.196;2023-03-31T15:19:13;3.17;;;1.08;;
20734;SDS011;10528;52.124;5.196;2023-03-31T15:22:00;3.00;;;0.90;;
20734;SDS011;10528;52.124;5.196;2023-03-31T15:24:39;4.70;;;1.00;;
20734;SDS011;10528;52.124;5.196;2023-03-31T15:27:07;4.78;;;1.00;;
20734;SDS011;10528;52.124;5.196;2023-03-31T15:30:03;2.95;;;0.90;;
20734;SDS011;10528;52.124;5.196;2023-03-31T15:32:34;4.05;;;1.08;;
20734;SDS011;10528;52.124;5.196;2023-03-31T15:35:04;3.92;;;1.25;;
20734;SDS011;10528;52.124;5.196;2023-03-31T15:37:46;2.97;;;0.90;;
20734;SDS011;10528;52.124;5.196;2023-03-31T15:40:17;4.22;;;1.10;;
20734;SDS011;10528;52.124;5.196;2023-03-31T15:42:52;5.47;;;1.58;;
20734;SDS011;10528;52.124;5.196;2023-03-31T15:45:47;4.65;;;0.90;;
20734;SDS011;10528;52.124;5.196;2023-03-31T15:48:34;3.28;;;1.15;;
20734;SDS011;10528;52.124;5.196;2023-03-31T15:51:16;2.60;;;1.20;;
20734;SDS011;10528;52.124;5.196;2023-03-31T15:53:56;2.20;;;0.88;;
20734;SDS011;10528;52.124;5.196;2023-03-31T16:01:56;3.67;;;1.20;;
20734;SDS011;10528;52.124;5.196;2023-03-31T16:04:30;4.68;;;1.30;;
20734;SDS011;10528;52.124;5.196;2023-03-31T16:07:01;2.97;;;0.90;;
20734;SDS011;10528;52.124;5.196;2023-03-31T16:09:45;3.38;;;1.05;;
20734;SDS011;10528;52.124;5.196;2023-03-31T16:12:38;2.38;;;1.17;;
20734;SDS011;10528;52.124;5.196;2023-03-31T16:15:16;4.05;;;1.00;;
20734;SDS011;10528;52.124;5.196;2023-03-31T16:17:58;3.25;;;1.42;;
20734;SDS011;10528;52.124;5.196;2023-03-31T16:20:36;2.92;;;1.38;;
20734;SDS011;10528;52.124;5.196;2023-03-31T16:23:12;3.58;;;1.45;;
20734;SDS011;10528;52.124;5.196;2023-03-31T16:25:55;2.50;;;1.00;;
20734;SDS011;10528;52.124;5.196;2023-03-31T16:28:25;3.80;;;1.50;;
20734;SDS011;10528;52.124;5.196;2023-03-31T16:30:59;5.43;;;1.30;;
20734;SDS011;10528;52.124;5.196;2023-03-31T16:33:27;2.97;;;0.85;;
20734;SDS011;10528;52.124;5.196;2023-03-31T16:35:57;3.58;;;1.23;;
20734;SDS011;10528;52.124;5.196;2023-03-31T16:38:26;2.55;;;1.10;;
20734;SDS011;10528;52.124;5.196;2023-03-31T16:40:55;2.60;;;1.10;;
20734;SDS011;10528;52.124;5.196;2023-03-31T16:43:24;3.15;;;1.08;;
20734;SDS011;10528;52.124;5.196;2023-03-31T16:45:59;1.60;;;0.90;;
20734;SDS011;10528;52.124;5.196;2023-03-31T16:48:29;1.85;;;1.10;;
20734;SDS011;10528;52.124;5.196;2023-03-31T16:51:00;2.17;;;1.13;;
20734;SDS011;10528;52.124;5.196;2023-03-31T16:53:28;2.47;;;1.00;;
20734;SDS011;10528;52.124;5.196;2023-03-31T16:55:59;1.58;;;1.00;;
20734;SDS011;10528;52.124;5.196;2023-03-31T16:58:26;2.65;;;1.02;;
20734;SDS011;10528;52.124;5.196;2023-03-31T17:00:55;3.10;;;1.00;;
20734;SDS011;10528;52.124;5.196;2023-03-31T17:03:23;4.05;;;1.30;;
20734;SDS011;10528;52.124;5.196;2023-03-31T17:05:51;3.83;;;1.10;;
20734;SDS011;10528;52.124;5.196;2023-03-31T17:08:24;2.88;;;1.30;;
20734;SDS011;10528;52.124;5.196;2023-03-31T17:10:54;2.03;;;1.17;;
20734;SDS011;10528;52.124;5.196;2023-03-31T17:13:27;1.80;;;1.20;;
20734;SDS011;10528;52.124;5.196;2023-03-31T17:15:54;2.17;;;1.50;;
20734;SDS011;10528;52.124;5.196;2023-03-31T17:18:33;2.50;;;1.52;;
20734;SDS011;10528;52.124;5.196;2023-03-31T17:21:02;1.67;;;1.42;;
20734;SDS011;10528;52.124;5.196;2023-03-31T17:23:35;3.30;;;1.70;;
20734;SDS011;10528;52.124;5.196;2023-03-31T17:26:04;1.77;;;1.40;;
20734;SDS011;10528;52.124;5.196;2023-03-31T17:28:34;1.45;;;1.23;;
20734;SDS011;10528;52.124;5.196;2023-03-31T17:31:08;2.58;;;1.40;;
20734;SDS011;10528;52.124;5.196;2023-03-31T17:33:41;2.38;;;1.50;;
20734;SDS011;10528;52.124;5.196;2023-03-31T17:36:09;2.83;;;1.50;;
20734;SDS011;10528;52.124;5.196;2023-03-31T17:38:37;2.22;;;1.35;;
20734;SDS011;10528;52.124;5.196;2023-03-31T17:41:06;2.97;;;1.50;;
20734;SDS011;10528;52.124;5.196;2023-03-31T17:43:38;4.30;;;1.60;;
20734;SDS011;10528;52.124;5.196;2023-03-31T17:46:06;2.13;;;1.38;;
20734;SDS011;10528;52.124;5.196;2023-03-31T17:48:38;1.60;;;1.50;;
20734;SDS011;10528;52.124;5.196;2023-03-31T17:51:11;1.95;;;1.45;;
20734;SDS011;10528;52.124;5.196;2023-03-31T17:53:41;2.53;;;1.80;;
20734;SDS011;10528;52.124;5.196;2023-03-31T17:56:11;1.95;;;1.55;;
20734;SDS011;10528;52.124;5.196;2023-03-31T17:58:39;1.70;;;1.60;;
20734;SDS011;10528;52.124;5.196;2023-03-31T18:01:07;2.63;;;1.73;;
20734;SDS011;10528;52.124;5.196;2023-03-31T18:03:35;2.28;;;1.60;;
20734;SDS011;10528;52.124;5.196;2023-03-31T18:06:06;2.42;;;1.73;;
20734;SDS011;10528;52.124;5.196;2023-03-31T18:08:37;2.20;;;1.63;;
20734;SDS011;10528;52.124;5.196;2023-03-31T18:11:05;1.50;;;1.40;;
20734;SDS011;10528;52.124;5.196;2023-03-31T18:13:34;2.05;;;1.63;;
20734;SDS011;10528;52.124;5.196;2023-03-31T18:16:02;2.67;;;1.60;;
20734;SDS011;10528;52.124;5.196;2023-03-31T18:18:30;4.50;;;1.70;;
20734;SDS011;10528;52.124;5.196;2023-03-31T18:21:01;3.38;;;1.88;;
20734;SDS011;10528;52.124;5.196;2023-03-31T18:23:33;3.08;;;1.80;;
20734;SDS011;10528;52.124;5.196;2023-03-31T18:26:00;2.40;;;1.45;;
20734;SDS011;10528;52.124;5.196;2023-03-31T18:28:31;3.58;;;1.85;;
20734;SDS011;10528;52.124;5.196;2023-03-31T18:31:02;5.53;;;2.08;;
20734;SDS011;10528;52.124;5.196;2023-03-31T18:33:31;3.60;;;2.10;;
20734;SDS011;10528;52.124;5.196;2023-03-31T18:35:58;3.33;;;2.10;;
20734;SDS011;10528;52.124;5.196;2023-03-31T18:38:26;7.00;;;2.40;;